Thursday, June 29, 2017, 10:19 AM EDT
Back to Local

KCXY, Harrisburg Capital City

Location: New Cumberland, PA, United States Lat: 40.217
Local Time: 10:19 AM EDT (14:19 GMT) Lon: -76.85
Time Zone: US/Eastern Elev: 347 ft

Show me the last for .
Show Decoded

2017-06-29 08:56 METAR KCXY 291256Z 18004KT 10SM CLR 22/13 A3013 RMK AO2 SLP203 T02220128 =
2017-06-29 07:56 METAR KCXY 291156Z 13003KT 10SM CLR 21/12 A3013 RMK AO2 SLP202 T02060122 10211
                 20178 50000 =
2017-06-29 06:56 METAR KCXY 291056Z 00000KT 10SM CLR 19/13 A3014 RMK AO2 SLP205 T01890128 =
2017-06-29 05:56 METAR KCXY 290956Z AUTO 22003KT 10SM CLR 19/12 A3013 RMK AO2 SLP203 T01890117 =
2017-06-29 04:56 METAR KCXY 290856Z AUTO 00000KT 10SM CLR 20/12 A3013 RMK AO2 SLP202 T02000117
                 53001 =
2017-06-29 03:56 METAR KCXY 290756Z AUTO 24004KT 10SM CLR 20/12 A3012 RMK AO2 SLP199 T02000117 =
2017-06-29 02:56 METAR KCXY 290656Z AUTO 00000KT 10SM CLR 21/11 A3012 RMK AO2 SLP200 T02060111 =
2017-06-29 01:56 METAR KCXY 290556Z AUTO 22007KT 10SM CLR 21/11 A3013 RMK AO2 SLP200 T02110106
                 10239 20206 55000 =
2017-06-29 00:56 METAR KCXY 290456Z AUTO 20008KT 10SM CLR 22/10 A3012 RMK AO2 SLP198 T02170100
                 402780117 =
2017-06-28 23:56 METAR KCXY 290356Z AUTO 19008KT 10SM CLR 22/08 A3012 RMK AO2 SLP198 T02170083 =
2017-06-28 22:56 METAR KCXY 290256Z AUTO 18007KT 10SM CLR 22/08 A3013 RMK AO2 SLP201 T02220078
                 53005 =
2017-06-28 21:56 METAR KCXY 290156Z AUTO 20010KT 10SM CLR 23/07 A3012 RMK AO2 SLP199 T02280072 =
2017-06-28 20:56 METAR KCXY 290056Z 19006KT 10SM CLR 23/08 A3011 RMK AO2 SLP195 T02280083 =
2017-06-28 19:56 METAR KCXY 282356Z 21006KT 10SM CLR 24/09 A3011 RMK AO2 SLP196 T02390089 10278
                 20239 55001 =
2017-06-28 18:56 METAR KCXY 282256Z 19007KT 10SM CLR 26/08 A3011 RMK AO2 SLP195 T02560083 =
2017-06-28 17:56 METAR KCXY 282156Z 21007KT 10SM FEW070 26/08 A3011 RMK AO2 SLP195 T02610078 =
2017-06-28 16:56 METAR KCXY 282056Z 00000KT 10SM FEW075 27/08 A3012 RMK AO2 SLP198 T02670078
                 58009 =
2017-06-28 15:56 METAR KCXY 281956Z 28003KT 10SM SCT075 26/07 A3014 RMK AO2 SLP205 T02610072 =
2017-06-28 14:56 METAR KCXY 281856Z VRB04KT 10SM SCT075 26/07 A3014 RMK AO2 SLP205 T02610067 =
2017-06-28 13:56 METAR KCXY 281756Z VRB04KT 10SM SCT070 26/08 A3014 RMK AO2 SLP207 T02610078
                 10267 20167 58012 =
2017-06-28 12:56 METAR KCXY 281656Z 27008KT 10SM FEW065 26/08 A3017 RMK AO2 SLP214 T02560083 =
2017-06-28 11:56 METAR KCXY 281556Z 33008KT 10SM CLR 25/08 A3018 RMK AO2 SLP220 T02500083 =
2017-06-28 10:56 METAR KCXY 281456Z 25007KT 10SM CLR 23/09 A3018 RMK AO2 SLP219 T02280089 53002 =

Support USWX by starting your Amazon purchase here.